createdAt,value
2022-11-17T00:01:29.506Z,9.30
2022-11-17T00:03:58.951Z,9.30
2022-11-17T00:06:28.443Z,9.30
2022-11-17T00:08:58.108Z,9.30
2022-11-17T00:11:27.604Z,9.30
2022-11-17T00:14:14.766Z,9.30
2022-11-17T00:16:43.037Z,9.30
2022-11-17T00:19:30.123Z,9.30
2022-11-17T00:21:59.578Z,9.20
2022-11-17T00:24:30.610Z,9.30
2022-11-17T00:27:04.580Z,9.30
2022-11-17T00:29:38.556Z,9.20
2022-11-17T00:32:26.589Z,9.10
2022-11-17T00:34:56.066Z,9.10
2022-11-17T00:40:00.726Z,9.10
2022-11-17T00:42:32.065Z,9.10
2022-11-17T00:45:00.336Z,9.00
2022-11-17T00:47:29.815Z,9.00
2022-11-17T00:49:58.050Z,8.90
2022-11-17T00:52:27.502Z,8.80
2022-11-17T00:54:57.214Z,8.80
2022-11-17T00:57:26.752Z,8.70
2022-11-17T00:59:56.257Z,7.60
2022-11-17T01:02:27.014Z,8.60
2022-11-17T01:04:56.494Z,8.50
2022-11-17T01:07:26.036Z,8.50
2022-11-17T01:09:54.359Z,8.40
2022-11-17T01:14:56.181Z,8.40
2022-11-17T01:17:26.076Z,8.10
2022-11-17T01:19:55.667Z,8.30
2022-11-17T01:22:25.188Z,8.30
2022-11-17T01:27:24.712Z,8.10
2022-11-17T01:29:54.175Z,8.20
2022-11-17T01:34:54.629Z,8.00
2022-11-17T01:37:22.964Z,8.00
2022-11-17T01:39:52.059Z,8.00
2022-11-17T01:42:27.780Z,7.90
2022-11-17T01:47:44.899Z,7.90
2022-11-17T01:50:28.783Z,7.90
2022-11-17T01:53:02.615Z,8.00
2022-11-17T01:55:38.582Z,8.10
2022-11-17T01:58:15.766Z,8.10
2022-11-17T02:00:45.241Z,8.10
2022-11-17T02:03:15.920Z,8.20
2022-11-17T02:08:26.375Z,8.30
2022-11-17T02:10:56.068Z,8.40
2022-11-17T02:13:26.249Z,8.40
2022-11-17T02:21:31.756Z,8.40
2022-11-17T02:27:46.735Z,8.20
2022-11-17T02:30:20.150Z,8.40
2022-11-17T02:33:02.339Z,8.30
2022-11-17T02:35:41.887Z,8.30
2022-11-17T02:38:28.070Z,8.20
2022-11-17T02:41:05.962Z,8.30
2022-11-17T02:44:00.856Z,8.20
2022-11-17T02:49:09.968Z,8.20
2022-11-17T02:51:41.887Z,8.30
2022-11-17T02:54:13.164Z,8.10
2022-11-17T02:56:45.073Z,8.20
2022-11-17T02:59:22.652Z,8.20
2022-11-17T03:02:35.097Z,8.20
2022-11-17T03:05:16.694Z,8.20
2022-11-17T03:08:04.641Z,8.20
2022-11-17T03:10:52.266Z,8.20
2022-11-17T03:13:30.785Z,8.30
2022-11-17T03:16:14.952Z,8.30
2022-11-17T03:21:31.083Z,8.30
2022-11-17T03:24:07.875Z,8.20
2022-11-17T03:26:40.650Z,8.20
2022-11-17T03:29:17.058Z,8.20
2022-11-17T03:31:52.748Z,8.10
2022-11-17T03:34:25.477Z,8.10
2022-11-17T03:36:59.573Z,8.00
2022-11-17T03:39:33.730Z,7.90
2022-11-17T03:42:09.278Z,8.00
2022-11-17T03:44:42.477Z,8.00
2022-11-17T03:47:14.971Z,7.90
2022-11-17T03:49:52.198Z,8.00
2022-11-17T03:52:22.525Z,7.90
2022-11-17T03:54:51.034Z,7.90
2022-11-17T04:02:45.601Z,7.90
2022-11-17T04:05:18.879Z,7.90
2022-11-17T04:13:11.241Z,7.80
2022-11-17T04:15:59.262Z,7.80
2022-11-17T04:20:59.200Z,8.00
2022-11-17T04:23:29.390Z,7.80
2022-11-17T04:26:16.549Z,7.70
2022-11-17T04:31:20.151Z,7.70
2022-11-17T04:36:23.779Z,7.60
2022-11-17T04:38:56.744Z,7.50
2022-11-17T04:44:17.266Z,7.60
2022-11-17T04:49:18.886Z,7.60
2022-11-17T04:54:19.613Z,7.50
2022-11-17T04:56:49.072Z,7.50
2022-11-17T04:59:18.961Z,7.50
2022-11-17T05:07:10.136Z,7.40
2022-11-17T05:09:40.954Z,7.50
2022-11-17T05:12:28.486Z,7.50
2022-11-17T05:14:56.979Z,7.50
2022-11-17T05:17:25.575Z,7.50
2022-11-17T05:19:59.635Z,7.50
2022-11-17T05:22:47.818Z,7.40
2022-11-17T05:25:17.419Z,7.40
2022-11-17T05:27:45.734Z,7.50
2022-11-17T05:30:16.286Z,7.40
2022-11-17T05:35:18.417Z,7.40
2022-11-17T05:37:46.705Z,7.40
2022-11-17T05:40:16.275Z,7.40
2022-11-17T05:42:45.725Z,7.30
2022-11-17T05:45:15.243Z,7.40
2022-11-17T05:47:44.817Z,7.30
2022-11-17T05:57:46.979Z,7.30
2022-11-17T06:05:21.649Z,7.30
2022-11-17T06:07:52.131Z,7.20
2022-11-17T06:10:22.915Z,7.40
2022-11-17T06:12:51.157Z,7.30
2022-11-17T06:15:20.997Z,7.20
2022-11-17T06:20:26.923Z,7.20
2022-11-17T06:22:58.657Z,7.30
2022-11-17T06:27:59.412Z,7.20
2022-11-17T06:32:57.233Z,7.10
2022-11-17T06:35:27.007Z,7.20
2022-11-17T06:37:55.449Z,7.10
2022-11-17T06:40:23.714Z,7.10
2022-11-17T06:45:41.359Z,7.30
2022-11-17T06:48:12.815Z,7.20
2022-11-17T06:53:14.283Z,7.20
2022-11-17T06:58:13.878Z,7.30
2022-11-17T07:00:43.435Z,7.30
2022-11-17T07:05:44.316Z,7.30
2022-11-17T07:08:12.616Z,7.20
2022-11-17T07:10:47.965Z,7.20
2022-11-17T07:13:17.461Z,7.20
2022-11-17T07:18:19.329Z,7.30
2022-11-17T07:20:50.248Z,7.50
2022-11-17T07:23:20.931Z,7.50
2022-11-17T07:25:49.217Z,7.40
2022-11-17T07:28:18.885Z,7.40
2022-11-17T07:33:15.813Z,7.20
2022-11-17T07:35:45.501Z,7.50
2022-11-17T07:40:47.546Z,7.50
2022-11-17T07:43:16.029Z,7.60
2022-11-17T07:45:45.564Z,7.60
2022-11-17T07:53:16.292Z,7.80
2022-11-17T07:55:47.087Z,7.80
2022-11-17T07:58:15.335Z,7.70
2022-11-17T08:00:44.955Z,7.80
2022-11-17T08:03:13.415Z,7.70
2022-11-17T08:05:43.887Z,7.70
2022-11-17T08:10:45.481Z,8.00
2022-11-17T08:13:15.400Z,7.80
2022-11-17T08:15:44.907Z,7.80
2022-11-17T08:18:15.033Z,7.90
2022-11-17T08:20:44.591Z,7.80
2022-11-17T08:23:12.861Z,7.80
2022-11-17T08:25:41.516Z,7.90
2022-11-17T08:28:11.213Z,7.90
2022-11-17T08:30:40.980Z,8.00
2022-11-17T08:33:09.344Z,8.00
2022-11-17T08:35:38.914Z,8.00
2022-11-17T08:40:41.482Z,8.00
2022-11-17T08:43:11.329Z,7.90
2022-11-17T08:45:43.719Z,7.80
2022-11-17T08:53:15.769Z,7.70
2022-11-17T08:55:46.858Z,7.70
2022-11-17T08:58:17.201Z,7.70
2022-11-17T09:03:18.116Z,7.70
2022-11-17T09:08:44.363Z,7.70
2022-11-17T09:11:14.417Z,7.80
2022-11-17T09:16:17.881Z,7.80
2022-11-17T09:23:46.328Z,7.90
2022-11-17T09:33:51.569Z,8.00
2022-11-17T09:36:21.186Z,8.00
2022-11-17T09:38:50.686Z,7.80
2022-11-17T09:41:29.154Z,8.00
2022-11-17T09:44:25.539Z,8.10
2022-11-17T09:47:08.252Z,8.10
2022-11-17T09:49:56.824Z,8.20
2022-11-17T09:52:34.479Z,8.10
2022-11-17T09:55:10.588Z,8.20
2022-11-17T10:00:19.494Z,8.30
2022-11-17T10:05:27.127Z,8.20
2022-11-17T10:08:03.666Z,8.10
2022-11-17T10:10:39.317Z,8.20
2022-11-17T10:18:21.363Z,8.10
2022-11-17T10:20:50.086Z,8.10
2022-11-17T10:25:58.615Z,8.10
2022-11-17T10:28:30.019Z,8.20
2022-11-17T10:33:40.735Z,8.30
2022-11-17T10:41:22.390Z,8.40
2022-11-17T10:46:44.957Z,8.50
2022-11-17T10:49:26.884Z,8.60
2022-11-17T10:52:07.811Z,8.60
2022-11-17T10:57:11.118Z,8.60
2022-11-17T10:59:50.827Z,8.70
2022-11-17T11:02:31.880Z,8.80
2022-11-17T11:05:13.974Z,8.90
2022-11-17T11:10:26.037Z,8.90
2022-11-17T11:13:03.223Z,8.90
2022-11-17T11:15:36.334Z,9.00
2022-11-17T11:18:14.170Z,8.90
2022-11-17T11:23:40.698Z,8.90
2022-11-17T11:26:30.339Z,8.80
2022-11-17T11:34:52.766Z,8.90
2022-11-17T11:37:32.818Z,8.90
2022-11-17T11:48:23.922Z,9.10
2022-11-17T11:51:01.309Z,9.10
2022-11-17T11:53:43.633Z,9.30
2022-11-17T12:01:27.667Z,9.40
2022-11-17T12:04:12.696Z,9.50
2022-11-17T12:12:27.558Z,9.80
2022-11-17T12:15:34.903Z,10.00
2022-11-17T12:18:12.366Z,10.20
2022-11-17T12:21:05.192Z,10.30
2022-11-17T12:24:11.711Z,10.40
2022-11-17T12:26:41.834Z,10.50
2022-11-17T12:29:32.147Z,10.50
2022-11-17T12:42:31.792Z,10.10
2022-11-17T12:45:08.677Z,10.10
2022-11-17T12:47:40.690Z,10.10
2022-11-17T13:00:08.821Z,10.00
2022-11-17T13:03:02.839Z,10.00
2022-11-17T13:05:32.411Z,10.10
2022-11-17T13:10:54.452Z,10.20
2022-11-17T13:13:26.386Z,10.30
2022-11-17T13:15:58.734Z,10.60
2022-11-17T13:24:00.297Z,10.80
2022-11-17T13:29:09.492Z,10.90
2022-11-17T13:34:18.418Z,11.00
2022-11-17T13:36:54.797Z,11.10
2022-11-17T13:41:58.438Z,11.00
2022-11-17T13:44:29.756Z,11.10
2022-11-17T13:47:20.833Z,11.10
2022-11-17T13:49:49.457Z,11.10
2022-11-17T13:52:43.611Z,11.00
2022-11-17T13:55:21.704Z,10.80
2022-11-17T14:00:32.048Z,10.70
2022-11-17T14:03:03.158Z,10.70
2022-11-17T14:13:40.782Z,10.80
2022-11-17T14:19:01.142Z,10.80
2022-11-17T14:26:47.058Z,10.80
2022-11-17T14:29:16.517Z,10.70
2022-11-17T14:31:48.545Z,10.60
2022-11-17T14:34:17.474Z,10.50
2022-11-17T14:39:19.862Z,10.40
2022-11-17T14:41:52.205Z,10.20
2022-11-17T14:44:21.896Z,10.20
2022-11-17T14:46:51.559Z,10.20
2022-11-17T14:54:20.427Z,10.00
2022-11-17T14:59:19.835Z,9.80
2022-11-17T15:01:49.380Z,9.80
2022-11-17T15:07:10.435Z,9.70
2022-11-17T15:12:10.601Z,9.50
2022-11-17T15:14:38.905Z,9.50
2022-11-17T15:19:45.320Z,9.20
2022-11-17T15:22:13.598Z,9.30
2022-11-17T15:24:43.319Z,9.20
2022-11-17T15:27:13.408Z,9.10
2022-11-17T15:29:42.988Z,9.00
2022-11-17T15:32:13.723Z,9.00
2022-11-17T15:34:44.615Z,8.90
2022-11-17T15:39:44.449Z,8.90
2022-11-17T15:42:14.071Z,8.70
2022-11-17T15:47:12.269Z,8.60
2022-11-17T15:54:41.494Z,8.60
2022-11-17T15:59:40.949Z,8.70
2022-11-17T16:02:10.842Z,8.70
2022-11-17T16:07:10.424Z,8.80
2022-11-17T16:09:40.122Z,8.70
2022-11-17T16:12:10.886Z,8.70
2022-11-17T16:19:37.743Z,8.70
2022-11-17T16:22:06.051Z,8.60
2022-11-17T16:24:35.654Z,8.60
2022-11-17T16:29:33.868Z,8.40
2022-11-17T16:32:03.474Z,8.50
2022-11-17T16:37:01.554Z,8.40
2022-11-17T16:39:31.327Z,8.40
2022-11-17T16:42:02.286Z,8.30
2022-11-17T16:44:30.633Z,8.30
2022-11-17T16:52:02.173Z,8.30
2022-11-17T16:59:30.345Z,8.30
2022-11-17T17:02:01.275Z,8.30
2022-11-17T17:04:31.189Z,8.30
2022-11-17T17:09:29.766Z,8.30
2022-11-17T17:12:01.130Z,8.20
2022-11-17T17:19:30.458Z,8.10
2022-11-17T17:24:28.898Z,8.20
2022-11-17T17:26:59.642Z,8.20
2022-11-17T17:31:59.141Z,8.30
2022-11-17T17:37:00.116Z,8.30
2022-11-17T17:39:28.403Z,8.40
2022-11-17T17:41:56.876Z,8.30
2022-11-17T17:44:25.272Z,8.20
2022-11-17T17:49:25.555Z,8.30
2022-11-17T17:51:55.523Z,8.30
2022-11-17T17:54:25.143Z,8.20
2022-11-17T17:56:55.230Z,8.20
2022-11-17T18:01:56.134Z,8.20
2022-11-17T18:06:56.702Z,8.10
2022-11-17T18:09:25.038Z,8.20
2022-11-17T18:11:54.595Z,8.20
2022-11-17T18:16:56.466Z,8.10
2022-11-17T18:24:35.791Z,8.10
2022-11-17T18:34:37.903Z,7.90
2022-11-17T18:37:06.189Z,7.90
2022-11-17T18:42:05.703Z,7.90
2022-11-17T18:44:33.976Z,7.90
2022-11-17T18:47:03.668Z,7.80
2022-11-17T18:49:34.558Z,7.70
2022-11-17T18:52:05.592Z,7.70
2022-11-17T19:04:36.340Z,7.40
2022-11-17T19:09:33.310Z,7.50
2022-11-17T19:12:02.168Z,7.50
2022-11-17T19:14:30.430Z,7.60
2022-11-17T19:16:58.822Z,7.60
2022-11-17T19:21:59.587Z,7.50
2022-11-17T19:24:29.082Z,7.50
2022-11-17T19:26:59.804Z,7.40
2022-11-17T19:29:28.109Z,7.40
2022-11-17T19:31:57.669Z,7.40
2022-11-17T19:34:27.286Z,7.30
2022-11-17T19:36:57.053Z,7.40
2022-11-17T19:41:57.520Z,7.50
2022-11-17T19:46:56.137Z,7.50
2022-11-17T19:54:26.622Z,7.50
2022-11-17T19:56:57.376Z,7.40
2022-11-17T19:59:26.877Z,7.40
2022-11-17T20:04:24.009Z,7.30
2022-11-17T20:06:54.752Z,7.20
2022-11-17T20:11:55.833Z,7.10
2022-11-17T20:16:56.150Z,7.10
2022-11-17T20:19:24.394Z,7.10
2022-11-17T20:21:54.062Z,7.00
2022-11-17T20:24:23.500Z,7.20
2022-11-17T20:26:51.821Z,7.30
2022-11-17T20:29:21.692Z,7.30
2022-11-17T20:31:51.164Z,7.40
2022-11-17T20:34:19.593Z,7.60
2022-11-17T20:36:49.087Z,7.60
2022-11-17T20:39:18.918Z,7.80
2022-11-17T20:41:47.415Z,7.80
2022-11-17T20:44:26.057Z,7.90
2022-11-17T20:46:57.936Z,7.90
2022-11-17T20:49:28.879Z,7.90
2022-11-17T20:51:57.147Z,7.90
2022-11-17T20:54:25.452Z,8.00
2022-11-17T20:56:54.065Z,8.00
2022-11-17T20:59:22.611Z,8.00
2022-11-17T21:01:53.436Z,8.20
2022-11-17T21:04:23.075Z,8.00
2022-11-17T21:06:52.699Z,8.10
2022-11-17T21:09:22.553Z,7.80
2022-11-17T21:12:00.205Z,8.10
2022-11-17T21:14:30.572Z,8.10
2022-11-17T21:17:01.573Z,8.10
2022-11-17T21:19:36.517Z,8.10
2022-11-17T21:22:09.503Z,8.00
2022-11-17T21:24:38.955Z,8.10
2022-11-17T21:27:08.587Z,8.00
2022-11-17T21:29:38.063Z,8.00
2022-11-17T21:32:08.448Z,7.90
2022-11-17T21:34:38.076Z,7.90
2022-11-17T21:37:07.551Z,7.90
2022-11-17T21:39:36.119Z,7.80
2022-11-17T21:42:04.689Z,7.70
2022-11-17T21:44:33.022Z,7.70
2022-11-17T21:47:02.521Z,7.60
2022-11-17T21:49:33.129Z,7.60
2022-11-17T21:54:34.035Z,7.60
2022-11-17T21:57:02.267Z,7.60
2022-11-17T21:59:33.010Z,7.70
2022-11-17T22:02:02.431Z,7.60
2022-11-17T22:04:30.698Z,7.60
2022-11-17T22:07:00.246Z,7.60
2022-11-17T22:09:29.919Z,7.60
2022-11-17T22:11:58.500Z,7.60
2022-11-17T22:14:29.169Z,7.60
2022-11-17T22:16:57.452Z,7.60
2022-11-17T22:19:29.396Z,7.50
2022-11-17T22:24:30.132Z,7.60
2022-11-17T22:26:58.369Z,7.60
2022-11-17T22:29:28.256Z,7.50
2022-11-17T22:31:56.556Z,7.50
2022-11-17T22:39:24.460Z,7.40
2022-11-17T22:41:55.290Z,7.40
2022-11-17T22:46:53.435Z,7.40
2022-11-17T22:49:21.721Z,7.40
2022-11-17T22:52:07.551Z,7.40
2022-11-17T22:57:08.199Z,7.30
2022-11-17T22:59:38.938Z,7.30
2022-11-17T23:02:07.185Z,7.30
2022-11-17T23:04:36.677Z,7.20
2022-11-17T23:07:06.267Z,7.20
2022-11-17T23:12:07.569Z,7.10
2022-11-17T23:17:04.417Z,7.00
2022-11-17T23:19:33.877Z,6.90
2022-11-17T23:24:32.308Z,6.90
2022-11-17T23:27:00.692Z,6.90
2022-11-17T23:31:59.382Z,6.90
2022-11-17T23:42:03.329Z,6.80
2022-11-17T23:44:34.535Z,6.90
2022-11-17T23:47:02.796Z,6.80
2022-11-17T23:49:33.716Z,6.70
2022-11-17T23:52:01.934Z,6.70
2022-11-17T23:54:32.740Z,6.60
2022-11-17T23:59:34.603Z,6.50
